TimeCDT,TemperatureF,Dew PointF,Humidity,Sea Level PressureIn,VisibilityMPH,Wind Direction,Wind SpeedMPH,Gust SpeedMPH,PrecipitationIn,Events,Conditions,WindDirDegrees,DateUTC
12:54 AM,57.0,54.0,89,29.93,6.0,SW,9.2,-,0.00,,Overcast,220,2012-10-03 05:54:00
1:33 AM,57.2,53.6,88,29.94,7.0,SSW,6.9,-,N/A,,Overcast,210,2012-10-03 06:33:00
1:41 AM,57.2,53.6,88,29.95,5.0,SSW,6.9,-,N/A,,Overcast,210,2012-10-03 06:41:00
1:54 AM,57.0,54.0,89,29.95,7.0,SSW,6.9,-,N/A,,Overcast,200,2012-10-03 06:54:00
2:09 AM,57.2,53.6,88,29.95,8.0,South,6.9,-,N/A,,Overcast,190,2012-10-03 07:09:00
2:41 AM,57.2,53.6,88,29.95,7.0,SSW,5.8,-,N/A,,Overcast,210,2012-10-03 07:41:00
2:54 AM,57.0,54.0,89,29.96,8.0,SSW,5.8,-,N/A,,Overcast,210,2012-10-03 07:54:00
3:54 AM,57.2,53.6,88,29.97,7.0,SSW,4.6,-,N/A,,Overcast,200,2012-10-03 08:54:00
4:54 AM,57.0,54.0,89,29.99,7.0,SSW,4.6,-,N/A,,Overcast,200,2012-10-03 09:54:00
5:54 AM,57.0,54.0,89,30.02,7.0,South,4.6,-,N/A,,Overcast,190,2012-10-03 10:54:00
6:54 AM,55.9,53.1,90,30.03,6.0,SSW,4.6,-,N/A,,Scattered Clouds,200,2012-10-03 11:54:00
7:54 AM,57.0,53.1,87,30.04,6.0,Variable,3.5,-,N/A,,Clear,0,2012-10-03 12:54:00
8:54 AM,61.0,54.0,78,30.06,10.0,SSW,4.6,-,N/A,,Clear,200,2012-10-03 13:54:00
9:54 AM,64.0,53.1,67,30.06,10.0,South,6.9,-,N/A,,Clear,190,2012-10-03 14:54:00
10:54 AM,68.0,53.1,59,30.06,10.0,SSW,9.2,-,N/A,,Clear,210,2012-10-03 15:54:00
11:54 AM,71.1,53.1,53,30.06,10.0,SSW,12.7,-,N/A,,Clear,200,2012-10-03 16:54:00
12:54 PM,73.0,54.0,51,30.04,10.0,SW,10.4,19.6,N/A,,Clear,220,2012-10-03 17:54:00
1:54 PM,73.9,52.0,46,30.03,10.0,SW,13.8,-,N/A,,Clear,220,2012-10-03 18:54:00
2:54 PM,75.0,52.0,44,30.03,10.0,SW,12.7,19.6,N/A,,Scattered Clouds,220,2012-10-03 19:54:00
3:54 PM,73.9,52.0,46,30.03,10.0,SW,13.8,-,N/A,,Scattered Clouds,230,2012-10-03 20:54:00
4:54 PM,73.0,50.0,44,30.04,10.0,SSW,9.2,-,N/A,,Scattered Clouds,210,2012-10-03 21:54:00
5:54 PM,71.1,48.9,45,30.04,10.0,South,8.1,-,N/A,,Clear,190,2012-10-03 22:54:00
6:54 PM,68.0,50.0,52,30.06,10.0,SSE,6.9,-,N/A,,Clear,160,2012-10-03 23:54:00
7:54 PM,64.9,50.0,58,30.08,10.0,South,3.5,-,N/A,,Clear,170,2012-10-04 00:54:00
8:54 PM,63.0,50.0,63,30.09,10.0,Calm,Calm,-,N/A,,Clear,0,2012-10-04 01:54:00
9:54 PM,60.1,52.0,75,30.12,10.0,SSE,3.5,-,N/A,,Clear,160,2012-10-04 02:54:00
10:54 PM,64.0,53.1,67,30.15,10.0,West,15.0,20.7,N/A,,Mostly Cloudy,260,2012-10-04 03:54:00
11:54 PM,60.1,52.0,75,30.13,10.0,South,3.5,-,N/A,,Scattered Clouds,180,2012-10-04 04:54:00